Bridgeport, CT (06610)

4:40 AM EST on December 22, 2014 (GMT -0500)
Northern Part Of Town | Change Station
CLOSE
Current Station
Personal Weather Station
Location: Stratford, CT
Elevation: 100 ft
Nearby Weather Stations

Elev 100 ft 41.21 °N, 73.15 °W | Updated 7 seconds ago

Mostly Cloudy
Mostly Cloudy
33.8 °F
Feels Like 31 °F
N
3.1
Wind Variable Wind from NE
Gusts 4.5 mph

Today
High -- | Low -- °F
--% Chance of Precip.
Yesterday
High -- | Low -- °F
Precip. -- in
7:15 AM 4:27 PM
New Moon, 0% visible
Pressure 30.33 in
Visibility 10.0 miles
Clouds Scattered Clouds 2400 ft
Mostly Cloudy 3900 ft
Overcast 5000 ft
Windchill 31 °F
Dew Point 30 °F
Humidity 85%
Rainfall 0.00 in
Snow Depth Not available.
UV 0 out of 12
Pollen .10 out of 12
Air Quality Not available.
Flu Activity Not available.
SPECI KBDR 220912Z AUTO 03007KT 10SM SCT024 BKN039 OVC050 02/01 A3033 RMK AO2 RAE05UPB05E11 P0000 T00220006 TSNO

More Conditions Fewer Conditions

Pressure 30.33 in
Visibility 10.0 miles
Clouds Scattered Clouds 2400 ft
Mostly Cloudy 3900 ft
Overcast 5000 ft
Windchill 31 °F
Dew Point 30 °F
Humidity 85%
Rainfall 0.00 in
Snow Depth Not available.
UV 0 out of 12
Pollen .10 out of 12
Air Quality Not available.
Flu Activity Not available.
SPECI KBDR 220912Z AUTO 03007KT 10SM SCT024 BKN039 OVC050 02/01 A3033 RMK AO2 RAE05UPB05E11 P0000 T00220006 TSNO

More Conditions Fewer Conditions

10-Day Weather Forecast

Almanac

Astronomy

Dec. 22, 2014 Rise Set
Actual Time
Civil Twilight
Nautical Twilight
Astronomical Twilight
Moon
Length of Visible Light
Length of Day
Tomorrow will be .
, % of the Moon is Illuminated

Today's Extremes

State Highs State Lows

Community

WunderPhotos

Upload Photos

1,779,583 photos uploaded!

WunderBlogs® & News

Nearby

Air Quality

  Air Quality AQ Index Pollutant
Not available.

Snow Depth

Station Depth Elevation

Earthquake Activity

City Distance Mag. Time & Date
Minimum magnitude displayed is 2.5.

Coastal Water Temperatures

Place Temperature

Nearby Weather Stations